sensor_id;sensor_type;location;lat;lon;timestamp;P1;durP1;ratioP1;P2;durP2;ratioP2
38123;SDS011;23934;47.998;9.832;2023-04-29T00:01:57;0.00;;;0.00;;
38123;SDS011;23934;47.998;9.832;2023-04-29T00:04:24;0.43;;;0.43;;
38123;SDS011;23934;47.998;9.832;2023-04-29T00:06:50;0.08;;;0.08;;
38123;SDS011;23934;47.998;9.832;2023-04-29T00:09:16;0.00;;;0.00;;
38123;SDS011;23934;47.998;9.832;2023-04-29T00:11:42;0.05;;;0.05;;
38123;SDS011;23934;47.998;9.832;2023-04-29T00:14:08;0.00;;;0.00;;
38123;SDS011;23934;47.998;9.832;2023-04-29T00:16:34;0.10;;;0.10;;
38123;SDS011;23934;47.998;9.832;2023-04-29T00:19:00;0.17;;;0.17;;
38123;SDS011;23934;47.998;9.832;2023-04-29T00:21:27;0.00;;;0.00;;
38123;SDS011;23934;47.998;9.832;2023-04-29T00:23:53;0.00;;;0.00;;
38123;SDS011;23934;47.998;9.832;2023-04-29T00:26:19;0.00;;;0.00;;
38123;SDS011;23934;47.998;9.832;2023-04-29T00:28:45;0.00;;;0.00;;
38123;SDS011;23934;47.998;9.832;2023-04-29T00:31:11;0.25;;;0.20;;
38123;SDS011;23934;47.998;9.832;2023-04-29T00:33:37;0.75;;;0.75;;
38123;SDS011;23934;47.998;9.832;2023-04-29T00:36:04;0.00;;;0.00;;
38123;SDS011;23934;47.998;9.832;2023-04-29T00:38:30;0.00;;;0.00;;
38123;SDS011;23934;47.998;9.832;2023-04-29T00:40:56;0.20;;;0.20;;
38123;SDS011;23934;47.998;9.832;2023-04-29T00:43:22;0.15;;;0.15;;
38123;SDS011;23934;47.998;9.832;2023-04-29T00:45:48;0.05;;;0.05;;
38123;SDS011;23934;47.998;9.832;2023-04-29T00:48:15;0.47;;;0.47;;
38123;SDS011;23934;47.998;9.832;2023-04-29T00:50:41;0.00;;;0.00;;
38123;SDS011;23934;47.998;9.832;2023-04-29T00:53:07;0.00;;;0.00;;
38123;SDS011;23934;47.998;9.832;2023-04-29T00:55:33;0.00;;;0.00;;
38123;SDS011;23934;47.998;9.832;2023-04-29T00:58:00;0.00;;;0.00;;
38123;SDS011;23934;47.998;9.832;2023-04-29T01:00:28;0.20;;;0.20;;
38123;SDS011;23934;47.998;9.832;2023-04-29T01:02:54;0.00;;;0.00;;
38123;SDS011;23934;47.998;9.832;2023-04-29T01:05:21;0.00;;;0.00;;
38123;SDS011;23934;47.998;9.832;2023-04-29T01:10:38;0.45;;;0.45;;
38123;SDS011;23934;47.998;9.832;2023-04-29T01:13:13;8.10;;;0.80;;
38123;SDS011;23934;47.998;9.832;2023-04-29T01:15:49;0.10;;;0.10;;
38123;SDS011;23934;47.998;9.832;2023-04-29T01:20:43;0.00;;;0.00;;
38123;SDS011;23934;47.998;9.832;2023-04-29T01:23:09;0.63;;;0.63;;
38123;SDS011;23934;47.998;9.832;2023-04-29T01:25:36;1.02;;;1.00;;
38123;SDS011;23934;47.998;9.832;2023-04-29T01:31:18;0.20;;;0.20;;
38123;SDS011;23934;47.998;9.832;2023-04-29T01:38:48;0.00;;;0.00;;
38123;SDS011;23934;47.998;9.832;2023-04-29T01:41:18;0.00;;;0.00;;
38123;SDS011;23934;47.998;9.832;2023-04-29T01:43:49;0.43;;;0.43;;
38123;SDS011;23934;47.998;9.832;2023-04-29T01:46:16;0.00;;;0.00;;
38123;SDS011;23934;47.998;9.832;2023-04-29T01:48:45;1.25;;;1.00;;
38123;SDS011;23934;47.998;9.832;2023-04-29T01:51:11;0.00;;;0.00;;
38123;SDS011;23934;47.998;9.832;2023-04-29T01:53:37;0.00;;;0.00;;
38123;SDS011;23934;47.998;9.832;2023-04-29T01:56:07;0.20;;;0.20;;
38123;SDS011;23934;47.998;9.832;2023-04-29T01:58:33;10.02;;;1.55;;
38123;SDS011;23934;47.998;9.832;2023-04-29T02:00:59;0.00;;;0.00;;
38123;SDS011;23934;47.998;9.832;2023-04-29T02:03:25;0.95;;;0.57;;
38123;SDS011;23934;47.998;9.832;2023-04-29T02:05:51;0.00;;;0.00;;
38123;SDS011;23934;47.998;9.832;2023-04-29T02:08:17;0.10;;;0.10;;
38123;SDS011;23934;47.998;9.832;2023-04-29T02:10:55;0.55;;;0.55;;
38123;SDS011;23934;47.998;9.832;2023-04-29T02:13:21;0.63;;;0.63;;
38123;SDS011;23934;47.998;9.832;2023-04-29T02:15:47;0.00;;;0.00;;
38123;SDS011;23934;47.998;9.832;2023-04-29T02:18:13;0.00;;;0.00;;
38123;SDS011;23934;47.998;9.832;2023-04-29T02:20:40;0.25;;;0.25;;
38123;SDS011;23934;47.998;9.832;2023-04-29T02:23:06;0.25;;;0.25;;
38123;SDS011;23934;47.998;9.832;2023-04-29T02:25:32;15.90;;;1.45;;
38123;SDS011;23934;47.998;9.832;2023-04-29T02:27:58;0.00;;;0.00;;
38123;SDS011;23934;47.998;9.832;2023-04-29T02:30:24;0.00;;;0.00;;
38123;SDS011;23934;47.998;9.832;2023-04-29T02:32:50;0.00;;;0.00;;
38123;SDS011;23934;47.998;9.832;2023-04-29T02:35:17;0.10;;;0.10;;
38123;SDS011;23934;47.998;9.832;2023-04-29T02:37:43;0.25;;;0.25;;
38123;SDS011;23934;47.998;9.832;2023-04-29T02:40:09;0.28;;;0.28;;
38123;SDS011;23934;47.998;9.832;2023-04-29T02:42:35;0.73;;;0.73;;
38123;SDS011;23934;47.998;9.832;2023-04-29T02:45:02;0.63;;;0.63;;
38123;SDS011;23934;47.998;9.832;2023-04-29T02:47:28;1.20;;;1.15;;
38123;SDS011;23934;47.998;9.832;2023-04-29T02:49:54;0.38;;;0.20;;
38123;SDS011;23934;47.998;9.832;2023-04-29T02:52:19;0.25;;;0.25;;
38123;SDS011;23934;47.998;9.832;2023-04-29T02:54:45;0.00;;;0.00;;
38123;SDS011;23934;47.998;9.832;2023-04-29T02:57:11;0.00;;;0.00;;
38123;SDS011;23934;47.998;9.832;2023-04-29T02:59:37;0.10;;;0.10;;
38123;SDS011;23934;47.998;9.832;2023-04-29T03:02:03;0.63;;;0.60;;
38123;SDS011;23934;47.998;9.832;2023-04-29T03:04:29;0.25;;;0.25;;
38123;SDS011;23934;47.998;9.832;2023-04-29T03:06:55;1.67;;;1.38;;
38123;SDS011;23934;47.998;9.832;2023-04-29T03:09:21;0.93;;;0.88;;
38123;SDS011;23934;47.998;9.832;2023-04-29T03:11:47;0.65;;;0.65;;
38123;SDS011;23934;47.998;9.832;2023-04-29T03:14:13;0.00;;;0.00;;
38123;SDS011;23934;47.998;9.832;2023-04-29T03:16:40;0.00;;;0.00;;
38123;SDS011;23934;47.998;9.832;2023-04-29T03:19:06;0.60;;;0.52;;
38123;SDS011;23934;47.998;9.832;2023-04-29T03:21:32;0.45;;;0.45;;
38123;SDS011;23934;47.998;9.832;2023-04-29T03:23:58;0.00;;;0.00;;
38123;SDS011;23934;47.998;9.832;2023-04-29T03:26:24;0.80;;;0.38;;
38123;SDS011;23934;47.998;9.832;2023-04-29T03:28:50;0.57;;;0.57;;
38123;SDS011;23934;47.998;9.832;2023-04-29T03:31:16;0.00;;;0.00;;
38123;SDS011;23934;47.998;9.832;2023-04-29T03:33:44;0.10;;;0.10;;
38123;SDS011;23934;47.998;9.832;2023-04-29T03:36:10;0.00;;;0.00;;
38123;SDS011;23934;47.998;9.832;2023-04-29T03:38:37;0.43;;;0.43;;
38123;SDS011;23934;47.998;9.832;2023-04-29T03:41:03;0.00;;;0.00;;
38123;SDS011;23934;47.998;9.832;2023-04-29T03:43:29;0.03;;;0.03;;
38123;SDS011;23934;47.998;9.832;2023-04-29T03:45:55;0.00;;;0.00;;
38123;SDS011;23934;47.998;9.832;2023-04-29T03:48:21;0.20;;;0.20;;
38123;SDS011;23934;47.998;9.832;2023-04-29T03:50:47;0.00;;;0.00;;
38123;SDS011;23934;47.998;9.832;2023-04-29T03:53:13;0.00;;;0.00;;
38123;SDS011;23934;47.998;9.832;2023-04-29T03:55:39;1.75;;;0.93;;
38123;SDS011;23934;47.998;9.832;2023-04-29T03:58:05;0.00;;;0.00;;
38123;SDS011;23934;47.998;9.832;2023-04-29T04:00:31;0.20;;;0.20;;
38123;SDS011;23934;47.998;9.832;2023-04-29T04:02:57;0.00;;;0.00;;
38123;SDS011;23934;47.998;9.832;2023-04-29T04:05:23;0.00;;;0.00;;
38123;SDS011;23934;47.998;9.832;2023-04-29T04:07:50;0.70;;;0.40;;
38123;SDS011;23934;47.998;9.832;2023-04-29T04:10:16;0.03;;;0.03;;
38123;SDS011;23934;47.998;9.832;2023-04-29T04:12:42;0.43;;;0.35;;
38123;SDS011;23934;47.998;9.832;2023-04-29T04:15:08;0.10;;;0.10;;
38123;SDS011;23934;47.998;9.832;2023-04-29T04:17:34;0.65;;;0.65;;
38123;SDS011;23934;47.998;9.832;2023-04-29T04:20:00;2.65;;;1.55;;
38123;SDS011;23934;47.998;9.832;2023-04-29T04:22:26;0.00;;;0.00;;
38123;SDS011;23934;47.998;9.832;2023-04-29T04:24:55;0.35;;;0.35;;
38123;SDS011;23934;47.998;9.832;2023-04-29T04:27:21;1.48;;;1.38;;
38123;SDS011;23934;47.998;9.832;2023-04-29T04:29:47;1.50;;;0.73;;
38123;SDS011;23934;47.998;9.832;2023-04-29T04:32:17;0.00;;;0.00;;
38123;SDS011;23934;47.998;9.832;2023-04-29T04:34:43;0.00;;;0.00;;
38123;SDS011;23934;47.998;9.832;2023-04-29T04:37:09;0.10;;;0.10;;
38123;SDS011;23934;47.998;9.832;2023-04-29T04:39:36;0.25;;;0.25;;
38123;SDS011;23934;47.998;9.832;2023-04-29T04:42:03;1.08;;;1.08;;
38123;SDS011;23934;47.998;9.832;2023-04-29T04:44:29;0.10;;;0.10;;
38123;SDS011;23934;47.998;9.832;2023-04-29T04:46:55;1.08;;;0.98;;
38123;SDS011;23934;47.998;9.832;2023-04-29T04:49:24;0.10;;;0.10;;
38123;SDS011;23934;47.998;9.832;2023-04-29T04:51:51;0.00;;;0.00;;
38123;SDS011;23934;47.998;9.832;2023-04-29T04:54:17;1.33;;;0.43;;
38123;SDS011;23934;47.998;9.832;2023-04-29T04:56:43;0.52;;;0.52;;
38123;SDS011;23934;47.998;9.832;2023-04-29T04:59:08;0.98;;;0.98;;
38123;SDS011;23934;47.998;9.832;2023-04-29T05:01:34;0.47;;;0.47;;
38123;SDS011;23934;47.998;9.832;2023-04-29T05:04:00;1.45;;;0.55;;
38123;SDS011;23934;47.998;9.832;2023-04-29T05:06:27;0.00;;;0.00;;
38123;SDS011;23934;47.998;9.832;2023-04-29T05:08:53;0.38;;;0.38;;
38123;SDS011;23934;47.998;9.832;2023-04-29T05:11:20;0.00;;;0.00;;
38123;SDS011;23934;47.998;9.832;2023-04-29T05:13:46;0.90;;;0.88;;
38123;SDS011;23934;47.998;9.832;2023-04-29T05:16:12;0.13;;;0.13;;
38123;SDS011;23934;47.998;9.832;2023-04-29T05:18:38;1.08;;;0.28;;
38123;SDS011;23934;47.998;9.832;2023-04-29T05:21:04;1.30;;;0.98;;
38123;SDS011;23934;47.998;9.832;2023-04-29T05:23:30;0.15;;;0.15;;
38123;SDS011;23934;47.998;9.832;2023-04-29T05:25:56;0.52;;;0.45;;
38123;SDS011;23934;47.998;9.832;2023-04-29T05:28:22;0.10;;;0.10;;
38123;SDS011;23934;47.998;9.832;2023-04-29T05:30:51;1.05;;;1.02;;
38123;SDS011;23934;47.998;9.832;2023-04-29T05:33:17;0.20;;;0.20;;
38123;SDS011;23934;47.998;9.832;2023-04-29T05:35:43;0.17;;;0.17;;
38123;SDS011;23934;47.998;9.832;2023-04-29T05:38:09;0.15;;;0.15;;
38123;SDS011;23934;47.998;9.832;2023-04-29T05:40:35;2.20;;;2.00;;
38123;SDS011;23934;47.998;9.832;2023-04-29T05:43:01;4.72;;;3.63;;
38123;SDS011;23934;47.998;9.832;2023-04-29T05:45:26;0.10;;;0.10;;
38123;SDS011;23934;47.998;9.832;2023-04-29T05:47:53;1.30;;;1.00;;
38123;SDS011;23934;47.998;9.832;2023-04-29T05:50:18;0.70;;;0.70;;
38123;SDS011;23934;47.998;9.832;2023-04-29T05:52:44;0.35;;;0.35;;
38123;SDS011;23934;47.998;9.832;2023-04-29T05:55:10;0.20;;;0.20;;
38123;SDS011;23934;47.998;9.832;2023-04-29T05:57:36;2.13;;;0.65;;
38123;SDS011;23934;47.998;9.832;2023-04-29T06:00:02;0.47;;;0.43;;
38123;SDS011;23934;47.998;9.832;2023-04-29T06:02:30;0.38;;;0.38;;
38123;SDS011;23934;47.998;9.832;2023-04-29T06:04:57;0.00;;;0.00;;
38123;SDS011;23934;47.998;9.832;2023-04-29T06:07:23;0.80;;;0.80;;
38123;SDS011;23934;47.998;9.832;2023-04-29T06:09:50;0.00;;;0.00;;
38123;SDS011;23934;47.998;9.832;2023-04-29T06:12:16;0.15;;;0.15;;
38123;SDS011;23934;47.998;9.832;2023-04-29T06:14:42;0.00;;;0.00;;
38123;SDS011;23934;47.998;9.832;2023-04-29T06:17:08;0.65;;;0.65;;
38123;SDS011;23934;47.998;9.832;2023-04-29T06:19:35;0.00;;;0.00;;
38123;SDS011;23934;47.998;9.832;2023-04-29T06:22:00;1.75;;;1.65;;
38123;SDS011;23934;47.998;9.832;2023-04-29T06:24:26;0.10;;;0.10;;
38123;SDS011;23934;47.998;9.832;2023-04-29T06:26:52;3.20;;;1.35;;
38123;SDS011;23934;47.998;9.832;2023-04-29T06:29:18;0.00;;;0.00;;
38123;SDS011;23934;47.998;9.832;2023-04-29T06:31:44;0.10;;;0.10;;
38123;SDS011;23934;47.998;9.832;2023-04-29T06:34:10;0.32;;;0.32;;
38123;SDS011;23934;47.998;9.832;2023-04-29T06:36:37;0.90;;;0.90;;
38123;SDS011;23934;47.998;9.832;2023-04-29T06:39:03;0.28;;;0.28;;
38123;SDS011;23934;47.998;9.832;2023-04-29T06:41:29;0.13;;;0.13;;
38123;SDS011;23934;47.998;9.832;2023-04-29T06:43:54;0.13;;;0.13;;
38123;SDS011;23934;47.998;9.832;2023-04-29T06:46:20;0.75;;;0.75;;
38123;SDS011;23934;47.998;9.832;2023-04-29T06:48:46;0.85;;;0.85;;
38123;SDS011;23934;47.998;9.832;2023-04-29T06:51:12;0.90;;;0.90;;
38123;SDS011;23934;47.998;9.832;2023-04-29T06:53:38;0.45;;;0.45;;
38123;SDS011;23934;47.998;9.832;2023-04-29T06:56:04;0.43;;;0.38;;
38123;SDS011;23934;47.998;9.832;2023-04-29T06:58:30;1.20;;;1.10;;
38123;SDS011;23934;47.998;9.832;2023-04-29T07:00:56;2.05;;;1.00;;
38123;SDS011;23934;47.998;9.832;2023-04-29T07:03:22;0.00;;;0.00;;
38123;SDS011;23934;47.998;9.832;2023-04-29T07:05:48;0.00;;;0.00;;
38123;SDS011;23934;47.998;9.832;2023-04-29T07:08:14;0.85;;;0.73;;
38123;SDS011;23934;47.998;9.832;2023-04-29T07:10:40;0.00;;;0.00;;
38123;SDS011;23934;47.998;9.832;2023-04-29T07:13:06;0.05;;;0.05;;
38123;SDS011;23934;47.998;9.832;2023-04-29T07:15:33;2.72;;;1.90;;
38123;SDS011;23934;47.998;9.832;2023-04-29T07:17:59;1.52;;;1.17;;
38123;SDS011;23934;47.998;9.832;2023-04-29T07:20:25;5.25;;;2.05;;
38123;SDS011;23934;47.998;9.832;2023-04-29T07:22:51;1.40;;;1.13;;
38123;SDS011;23934;47.998;9.832;2023-04-29T07:25:17;0.93;;;0.93;;
38123;SDS011;23934;47.998;9.832;2023-04-29T07:27:43;22.08;;;7.03;;
38123;SDS011;23934;47.998;9.832;2023-04-29T07:30:09;4.40;;;1.98;;
38123;SDS011;23934;47.998;9.832;2023-04-29T07:32:35;0.00;;;0.00;;
38123;SDS011;23934;47.998;9.832;2023-04-29T07:35:01;1.42;;;1.33;;
38123;SDS011;23934;47.998;9.832;2023-04-29T07:37:27;0.43;;;0.43;;
38123;SDS011;23934;47.998;9.832;2023-04-29T07:39:53;2.88;;;2.67;;
38123;SDS011;23934;47.998;9.832;2023-04-29T07:42:19;1.67;;;1.58;;
38123;SDS011;23934;47.998;9.832;2023-04-29T07:44:45;0.80;;;0.80;;
38123;SDS011;23934;47.998;9.832;2023-04-29T07:47:11;0.10;;;0.10;;
38123;SDS011;23934;47.998;9.832;2023-04-29T07:49:37;2.10;;;1.23;;
38123;SDS011;23934;47.998;9.832;2023-04-29T07:52:03;0.30;;;0.30;;
38123;SDS011;23934;47.998;9.832;2023-04-29T07:54:30;0.10;;;0.10;;
38123;SDS011;23934;47.998;9.832;2023-04-29T07:56:57;0.15;;;0.15;;
38123;SDS011;23934;47.998;9.832;2023-04-29T07:59:23;0.10;;;0.10;;
38123;SDS011;23934;47.998;9.832;2023-04-29T08:01:49;0.00;;;0.00;;
38123;SDS011;23934;47.998;9.832;2023-04-29T08:04:16;0.10;;;0.10;;
38123;SDS011;23934;47.998;9.832;2023-04-29T08:06:42;0.08;;;0.08;;
38123;SDS011;23934;47.998;9.832;2023-04-29T08:09:08;0.20;;;0.20;;
38123;SDS011;23934;47.998;9.832;2023-04-29T08:11:35;0.00;;;0.00;;
38123;SDS011;23934;47.998;9.832;2023-04-29T08:14:01;0.40;;;0.40;;
38123;SDS011;23934;47.998;9.832;2023-04-29T08:16:27;0.00;;;0.00;;
38123;SDS011;23934;47.998;9.832;2023-04-29T08:18:53;0.20;;;0.20;;
38123;SDS011;23934;47.998;9.832;2023-04-29T08:21:19;0.10;;;0.10;;
38123;SDS011;23934;47.998;9.832;2023-04-29T08:23:45;0.30;;;0.30;;
38123;SDS011;23934;47.998;9.832;2023-04-29T08:26:11;0.17;;;0.17;;
38123;SDS011;23934;47.998;9.832;2023-04-29T08:28:37;0.20;;;0.20;;
38123;SDS011;23934;47.998;9.832;2023-04-29T08:31:03;0.00;;;0.00;;
38123;SDS011;23934;47.998;9.832;2023-04-29T08:33:32;0.13;;;0.13;;
38123;SDS011;23934;47.998;9.832;2023-04-29T08:35:58;0.32;;;0.32;;
38123;SDS011;23934;47.998;9.832;2023-04-29T08:38:25;0.10;;;0.10;;
38123;SDS011;23934;47.998;9.832;2023-04-29T08:40:51;0.30;;;0.30;;
38123;SDS011;23934;47.998;9.832;2023-04-29T08:43:17;0.00;;;0.00;;
38123;SDS011;23934;47.998;9.832;2023-04-29T08:45:44;0.50;;;0.50;;
38123;SDS011;23934;47.998;9.832;2023-04-29T08:48:11;0.10;;;0.10;;
38123;SDS011;23934;47.998;9.832;2023-04-29T08:50:38;0.77;;;0.65;;
38123;SDS011;23934;47.998;9.832;2023-04-29T08:53:05;1.10;;;0.90;;
38123;SDS011;23934;47.998;9.832;2023-04-29T08:55:34;2.03;;;0.93;;
38123;SDS011;23934;47.998;9.832;2023-04-29T08:58:01;5.22;;;2.30;;
38123;SDS011;23934;47.998;9.832;2023-04-29T09:00:27;5.38;;;2.63;;
38123;SDS011;23934;47.998;9.832;2023-04-29T09:02:55;5.10;;;2.53;;
38123;SDS011;23934;47.998;9.832;2023-04-29T09:05:22;8.43;;;3.20;;
38123;SDS011;23934;47.998;9.832;2023-04-29T09:07:49;5.45;;;3.47;;
38123;SDS011;23934;47.998;9.832;2023-04-29T09:10:16;4.88;;;3.15;;
38123;SDS011;23934;47.998;9.832;2023-04-29T09:12:42;10.80;;;3.60;;
38123;SDS011;23934;47.998;9.832;2023-04-29T09:15:10;4.43;;;2.72;;
38123;SDS011;23934;47.998;9.832;2023-04-29T09:17:46;6.50;;;3.30;;
38123;SDS011;23934;47.998;9.832;2023-04-29T09:22:51;7.00;;;3.88;;
38123;SDS011;23934;47.998;9.832;2023-04-29T09:25:17;6.68;;;3.38;;
38123;SDS011;23934;47.998;9.832;2023-04-29T09:27:43;6.50;;;3.47;;
38123;SDS011;23934;47.998;9.832;2023-04-29T09:30:09;8.65;;;3.60;;
38123;SDS011;23934;47.998;9.832;2023-04-29T09:32:37;7.90;;;3.25;;
38123;SDS011;23934;47.998;9.832;2023-04-29T09:35:20;4.78;;;2.70;;
38123;SDS011;23934;47.998;9.832;2023-04-29T09:37:46;6.40;;;3.15;;
38123;SDS011;23934;47.998;9.832;2023-04-29T09:40:31;3.92;;;2.42;;
38123;SDS011;23934;47.998;9.832;2023-04-29T09:42:58;5.28;;;2.50;;
38123;SDS011;23934;47.998;9.832;2023-04-29T09:45:33;3.45;;;2.20;;
38123;SDS011;23934;47.998;9.832;2023-04-29T09:48:01;7.25;;;2.72;;
38123;SDS011;23934;47.998;9.832;2023-04-29T09:50:27;2.45;;;1.85;;
38123;SDS011;23934;47.998;9.832;2023-04-29T09:52:53;5.68;;;1.48;;
38123;SDS011;23934;47.998;9.832;2023-04-29T09:55:19;2.38;;;1.40;;
38123;SDS011;23934;47.998;9.832;2023-04-29T09:57:45;2.08;;;1.27;;
38123;SDS011;23934;47.998;9.832;2023-04-29T10:00:12;3.28;;;1.23;;
38123;SDS011;23934;47.998;9.832;2023-04-29T10:02:40;1.80;;;1.08;;
38123;SDS011;23934;47.998;9.832;2023-04-29T10:05:07;2.42;;;1.30;;
38123;SDS011;23934;47.998;9.832;2023-04-29T10:07:34;2.05;;;1.25;;
38123;SDS011;23934;47.998;9.832;2023-04-29T10:10:04;3.00;;;1.00;;
38123;SDS011;23934;47.998;9.832;2023-04-29T10:12:32;1.65;;;0.90;;
38123;SDS011;23934;47.998;9.832;2023-04-29T10:17:33;7.18;;;1.10;;
38123;SDS011;23934;47.998;9.832;2023-04-29T10:20:02;7.15;;;2.00;;
38123;SDS011;23934;47.998;9.832;2023-04-29T10:22:45;3.13;;;1.30;;
38123;SDS011;23934;47.998;9.832;2023-04-29T10:25:12;2.25;;;1.30;;
38123;SDS011;23934;47.998;9.832;2023-04-29T10:27:41;5.13;;;1.30;;
38123;SDS011;23934;47.998;9.832;2023-04-29T10:30:08;5.40;;;1.42;;
38123;SDS011;23934;47.998;9.832;2023-04-29T10:32:36;1.83;;;1.20;;
38123;SDS011;23934;47.998;9.832;2023-04-29T10:35:05;1.88;;;1.10;;
38123;SDS011;23934;47.998;9.832;2023-04-29T10:37:33;1.67;;;1.25;;
38123;SDS011;23934;47.998;9.832;2023-04-29T10:40:11;3.40;;;1.17;;
38123;SDS011;23934;47.998;9.832;2023-04-29T10:45:18;1.50;;;0.90;;
38123;SDS011;23934;47.998;9.832;2023-04-29T10:50:39;3.25;;;1.50;;
38123;SDS011;23934;47.998;9.832;2023-04-29T10:53:09;1.88;;;1.10;;
38123;SDS011;23934;47.998;9.832;2023-04-29T10:55:35;2.58;;;1.00;;
38123;SDS011;23934;47.998;9.832;2023-04-29T10:58:02;3.75;;;1.58;;
38123;SDS011;23934;47.998;9.832;2023-04-29T11:00:29;2.35;;;1.10;;
38123;SDS011;23934;47.998;9.832;2023-04-29T11:02:56;2.25;;;1.23;;
38123;SDS011;23934;47.998;9.832;2023-04-29T11:05:30;4.72;;;1.02;;
38123;SDS011;23934;47.998;9.832;2023-04-29T11:08:12;1.48;;;1.10;;
38123;SDS011;23934;47.998;9.832;2023-04-29T11:10:40;2.92;;;1.13;;
38123;SDS011;23934;47.998;9.832;2023-04-29T11:13:25;2.08;;;0.88;;
38123;SDS011;23934;47.998;9.832;2023-04-29T11:15:52;1.60;;;1.05;;
38123;SDS011;23934;47.998;9.832;2023-04-29T11:18:18;1.25;;;1.13;;
38123;SDS011;23934;47.998;9.832;2023-04-29T11:23:29;1.65;;;1.15;;
38123;SDS011;23934;47.998;9.832;2023-04-29T11:25:55;2.65;;;1.10;;
38123;SDS011;23934;47.998;9.832;2023-04-29T11:28:22;3.50;;;0.90;;
38123;SDS011;23934;47.998;9.832;2023-04-29T11:30:49;2.45;;;1.20;;
38123;SDS011;23934;47.998;9.832;2023-04-29T11:33:15;3.55;;;1.02;;
38123;SDS011;23934;47.998;9.832;2023-04-29T11:35:41;1.15;;;0.82;;
38123;SDS011;23934;47.998;9.832;2023-04-29T11:38:08;1.65;;;1.05;;
38123;SDS011;23934;47.998;9.832;2023-04-29T11:40:34;1.98;;;1.23;;
38123;SDS011;23934;47.998;9.832;2023-04-29T11:43:00;1.17;;;0.88;;
38123;SDS011;23934;47.998;9.832;2023-04-29T11:45:26;1.00;;;0.90;;
38123;SDS011;23934;47.998;9.832;2023-04-29T11:47:52;3.15;;;1.02;;
38123;SDS011;23934;47.998;9.832;2023-04-29T11:50:18;2.35;;;0.85;;
38123;SDS011;23934;47.998;9.832;2023-04-29T11:52:47;4.32;;;0.80;;
38123;SDS011;23934;47.998;9.832;2023-04-29T11:55:13;2.10;;;1.55;;
38123;SDS011;23934;47.998;9.832;2023-04-29T11:57:39;0.73;;;0.73;;
38123;SDS011;23934;47.998;9.832;2023-04-29T12:00:14;1.30;;;0.80;;
38123;SDS011;23934;47.998;9.832;2023-04-29T12:02:44;2.92;;;1.40;;
38123;SDS011;23934;47.998;9.832;2023-04-29T12:05:10;0.90;;;0.80;;
38123;SDS011;23934;47.998;9.832;2023-04-29T12:07:37;1.10;;;1.00;;
38123;SDS011;23934;47.998;9.832;2023-04-29T12:10:07;0.93;;;0.80;;
38123;SDS011;23934;47.998;9.832;2023-04-29T12:12:34;1.35;;;0.90;;
38123;SDS011;23934;47.998;9.832;2023-04-29T12:15:00;1.48;;;1.00;;
38123;SDS011;23934;47.998;9.832;2023-04-29T12:17:27;3.58;;;0.95;;
38123;SDS011;23934;47.998;9.832;2023-04-29T12:19:53;1.55;;;1.00;;
38123;SDS011;23934;47.998;9.832;2023-04-29T12:22:19;0.98;;;0.90;;
38123;SDS011;23934;47.998;9.832;2023-04-29T12:24:45;3.58;;;0.90;;
38123;SDS011;23934;47.998;9.832;2023-04-29T12:27:11;1.40;;;0.90;;
38123;SDS011;23934;47.998;9.832;2023-04-29T12:29:38;1.13;;;0.90;;
38123;SDS011;23934;47.998;9.832;2023-04-29T12:32:04;2.40;;;0.90;;
38123;SDS011;23934;47.998;9.832;2023-04-29T12:34:31;1.45;;;1.10;;
38123;SDS011;23934;47.998;9.832;2023-04-29T12:36:57;2.63;;;1.02;;
38123;SDS011;23934;47.998;9.832;2023-04-29T12:39:24;1.65;;;1.00;;
38123;SDS011;23934;47.998;9.832;2023-04-29T12:41:53;1.50;;;0.90;;
38123;SDS011;23934;47.998;9.832;2023-04-29T12:44:20;2.72;;;1.00;;
38123;SDS011;23934;47.998;9.832;2023-04-29T12:46:46;0.80;;;0.80;;
38123;SDS011;23934;47.998;9.832;2023-04-29T12:49:12;1.65;;;0.82;;
38123;SDS011;23934;47.998;9.832;2023-04-29T12:51:38;3.60;;;1.10;;
38123;SDS011;23934;47.998;9.832;2023-04-29T12:54:04;1.05;;;0.80;;
38123;SDS011;23934;47.998;9.832;2023-04-29T12:56:31;1.50;;;1.00;;
38123;SDS011;23934;47.998;9.832;2023-04-29T12:59:04;3.28;;;1.00;;
38123;SDS011;23934;47.998;9.832;2023-04-29T13:01:31;1.00;;;0.93;;
38123;SDS011;23934;47.998;9.832;2023-04-29T13:03:57;1.77;;;0.85;;
38123;SDS011;23934;47.998;9.832;2023-04-29T13:06:23;1.05;;;0.93;;
38123;SDS011;23934;47.998;9.832;2023-04-29T13:08:49;1.65;;;0.82;;
38123;SDS011;23934;47.998;9.832;2023-04-29T13:11:15;4.63;;;0.98;;
38123;SDS011;23934;47.998;9.832;2023-04-29T13:13:41;0.70;;;0.70;;
38123;SDS011;23934;47.998;9.832;2023-04-29T13:16:08;1.13;;;0.75;;
38123;SDS011;23934;47.998;9.832;2023-04-29T13:18:34;1.50;;;0.70;;
38123;SDS011;23934;47.998;9.832;2023-04-29T13:21:00;1.33;;;0.85;;
38123;SDS011;23934;47.998;9.832;2023-04-29T13:23:26;4.30;;;0.70;;
38123;SDS011;23934;47.998;9.832;2023-04-29T13:25:52;0.88;;;0.60;;
38123;SDS011;23934;47.998;9.832;2023-04-29T13:28:18;1.77;;;0.80;;
38123;SDS011;23934;47.998;9.832;2023-04-29T13:30:46;0.68;;;0.65;;
38123;SDS011;23934;47.998;9.832;2023-04-29T13:33:12;0.77;;;0.70;;
38123;SDS011;23934;47.998;9.832;2023-04-29T13:35:38;0.70;;;0.60;;
38123;SDS011;23934;47.998;9.832;2023-04-29T13:38:05;1.25;;;0.77;;
38123;SDS011;23934;47.998;9.832;2023-04-29T13:40:31;3.60;;;0.65;;
38123;SDS011;23934;47.998;9.832;2023-04-29T13:42:57;6.53;;;1.48;;
38123;SDS011;23934;47.998;9.832;2023-04-29T13:45:23;1.08;;;0.70;;
38123;SDS011;23934;47.998;9.832;2023-04-29T13:47:49;1.42;;;1.02;;
38123;SDS011;23934;47.998;9.832;2023-04-29T13:50:15;4.80;;;0.98;;
38123;SDS011;23934;47.998;9.832;2023-04-29T13:52:41;1.63;;;0.90;;
38123;SDS011;23934;47.998;9.832;2023-04-29T13:55:07;4.72;;;0.70;;
38123;SDS011;23934;47.998;9.832;2023-04-29T13:57:33;0.82;;;0.73;;
38123;SDS011;23934;47.998;9.832;2023-04-29T13:59:59;0.75;;;0.70;;
38123;SDS011;23934;47.998;9.832;2023-04-29T14:02:25;0.98;;;0.60;;
38123;SDS011;23934;47.998;9.832;2023-04-29T14:04:51;0.70;;;0.70;;
38123;SDS011;23934;47.998;9.832;2023-04-29T14:07:17;0.73;;;0.60;;
38123;SDS011;23934;47.998;9.832;2023-04-29T14:09:43;0.82;;;0.60;;
38123;SDS011;23934;47.998;9.832;2023-04-29T14:12:10;0.70;;;0.70;;
38123;SDS011;23934;47.998;9.832;2023-04-29T14:14:36;0.80;;;0.60;;
38123;SDS011;23934;47.998;9.832;2023-04-29T14:17:02;3.42;;;0.90;;
38123;SDS011;23934;47.998;9.832;2023-04-29T14:19:28;0.77;;;0.77;;
38123;SDS011;23934;47.998;9.832;2023-04-29T14:21:54;2.22;;;0.77;;
38123;SDS011;23934;47.998;9.832;2023-04-29T14:24:20;0.60;;;0.60;;
38123;SDS011;23934;47.998;9.832;2023-04-29T14:26:46;0.70;;;0.70;;
38123;SDS011;23934;47.998;9.832;2023-04-29T14:29:12;1.00;;;0.70;;
38123;SDS011;23934;47.998;9.832;2023-04-29T14:31:38;4.63;;;0.80;;
38123;SDS011;23934;47.998;9.832;2023-04-29T14:34:04;0.82;;;0.63;;
38123;SDS011;23934;47.998;9.832;2023-04-29T14:36:30;5.95;;;1.00;;
38123;SDS011;23934;47.998;9.832;2023-04-29T14:38:56;1.08;;;0.73;;
38123;SDS011;23934;47.998;9.832;2023-04-29T14:41:22;1.00;;;0.82;;
38123;SDS011;23934;47.998;9.832;2023-04-29T14:43:49;0.60;;;0.60;;
38123;SDS011;23934;47.998;9.832;2023-04-29T14:46:15;1.25;;;0.68;;
38123;SDS011;23934;47.998;9.832;2023-04-29T14:48:41;1.25;;;0.85;;
38123;SDS011;23934;47.998;9.832;2023-04-29T14:51:07;1.48;;;0.82;;
38123;SDS011;23934;47.998;9.832;2023-04-29T14:53:33;0.88;;;0.82;;
38123;SDS011;23934;47.998;9.832;2023-04-29T14:55:59;1.38;;;1.10;;
38123;SDS011;23934;47.998;9.832;2023-04-29T14:58:25;1.05;;;0.60;;
38123;SDS011;23934;47.998;9.832;2023-04-29T15:00:51;5.45;;;1.00;;
38123;SDS011;23934;47.998;9.832;2023-04-29T15:03:17;0.90;;;0.80;;
38123;SDS011;23934;47.998;9.832;2023-04-29T15:05:43;1.95;;;0.90;;
38123;SDS011;23934;47.998;9.832;2023-04-29T15:08:09;1.20;;;0.88;;
38123;SDS011;23934;47.998;9.832;2023-04-29T15:10:35;2.38;;;1.10;;
38123;SDS011;23934;47.998;9.832;2023-04-29T15:13:01;7.65;;;1.08;;